^^
B2 Weather Station Historical Data
Daily Summary for July 6, 2019 Units:  English    Metric   Both
Daily Weekly Monthly Yearly Custom
  High: Low: Average:
Temperature: 90.3 °F 65.5 °F 77.8 °F
Dew Point: 80.1 °F 62.6 °F 72.3 °F
Humidity: 95% 65% 84%
Wind Speed: 18.4mph 0mph 4.6mph
Wind Gust: 11.9mph - -
Wind- - SE
Pressure: 30.00 in 29.89 in -
Precipitation: 0 in    
Historical Graphs
 
 
Tabular Data for July 6, 2019
Time Temperature Dew Point Pressure Wind Wind Speed Wind Gust Humidity Rainfall Rate (Hourly) solar
00:04 79.7 °F 75.5 °F 29.93 in West 2.3 mph   87% 0 in 0.00 W/m2
00:09 79.7 °F 75.5 °F 29.93 in Calm     87% 0 in 0.00 W/m2
00:14 79.6 °F 75 °F 29.93 in West 2.3 mph 0.3 mph 86% 0 in 0.00 W/m2
00:19 79.6 °F 75 °F 29.93 in Calm     86% 0 in 0.00 W/m2
00:24 79 °F 75.1 °F 29.93 in Calm     88% 0 in 0.00 W/m2
00:29 78.5 °F 75 °F 29.93 in Calm     89% 0 in 0.00 W/m2
00:34 78.2 °F 75 °F 29.93 in Calm     90% 0 in 0.00 W/m2
00:39 77.9 °F 74.7 °F 29.93 in Calm     90% 0 in 0.00 W/m2
00:44 77.5 °F 74.3 °F 29.93 in Calm     90% 0 in 0.00 W/m2
00:49 77.2 °F 74.4 °F 29.93 in Calm     91% 0 in 0.00 W/m2
00:54 76.9 °F 74.4 °F 29.93 in Calm     92% 0 in 0.00 W/m2
00:59 76.6 °F 74.1 °F 29.93 in Calm     92% 0 in 0.00 W/m2
01:04 76.4 °F 74.2 °F 29.93 in Calm     93% 0 in 0.00 W/m2
01:09 76.5 °F 74.6 °F 29.93 in Calm     94% 0 in 0.00 W/m2
01:14 76.7 °F 74.8 °F 29.93 in Calm     94% 0 in 0.00 W/m2
01:19 76.6 °F 74.7 °F 29.93 in Calm     94% 0 in 0.00 W/m2
01:24 76.4 °F 74.5 °F 29.93 in Calm     94% 0 in 0.00 W/m2
01:29 76.1 °F 74.2 °F 29.93 in Calm     94% 0 in 0.00 W/m2
01:34 75.9 °F 74 °F 29.93 in Calm     94% 0 in 0.00 W/m2
01:39 75.7 °F 73.8 °F 29.93 in Calm     94% 0 in 0.00 W/m2
01:44 75.5 °F 73.7 °F 29.93 in Calm     94% 0 in 0.00 W/m2
01:49 75.4 °F 73.6 °F 29.93 in Calm     94% 0 in 0.00 W/m2
01:54 75.3 °F 73.5 °F 29.93 in Calm     94% 0 in 0.00 W/m2
01:59 75.3 °F 73.5 °F 29.93 in Calm     94% 0 in 0.00 W/m2
02:04 75.2 °F 73.4 °F 29.92 in Calm     94% 0 in 0.00 W/m2
02:09 75.2 °F 73.4 °F 29.92 in Calm     94% 0 in 0.00 W/m2
02:14 75.3 °F 73.5 °F 29.92 in Calm     94% 0 in 0.00 W/m2
02:19 75.4 °F 73.2 °F 29.92 in Calm     93% 0 in 0.00 W/m2
02:24 75.5 °F 73.3 °F 29.92 in Calm     93% 0 in 0.00 W/m2
02:29 75.8 °F 73.6 °F 29.92 in Calm     93% 0 in 0.00 W/m2
02:34 76.1 °F 73.6 °F 29.92 in Calm     92% 0 in 0.00 W/m2
02:39 76.4 °F 73.9 °F 29.92 in Calm     92% 0 in 0.00 W/m2
02:44 76.5 °F 74 °F 29.92 in Calm     92% 0 in 0.00 W/m2
02:49 76.6 °F 74.1 °F 29.92 in West 3.5 mph 2.1 mph 92% 0 in 0.00 W/m2
02:54 76.7 °F 74.2 °F 29.92 in WSW 5.8 mph 0.2 mph 92% 0 in 0.00 W/m2
02:59 76.7 °F 74.2 °F 29.92 in WNW 3.5 mph 2.7 mph 92% 0 in 0.00 W/m2
03:04 76.7 °F 74.2 °F 29.92 in SW 3.5 mph 1.7 mph 92% 0 in 0.00 W/m2
03:09 76.7 °F 74.2 °F 29.92 in Calm   0.5 mph 92% 0 in 0.00 W/m2
03:14 76.7 °F 74.2 °F 29.92 in Calm     92% 0 in 0.00 W/m2
03:19 76.7 °F 74.2 °F 29.92 in WSW 1 mph 0.1 mph 92% 0 in 0.00 W/m2
03:24 76.7 °F 74.2 °F 29.92 in WSW 3.5 mph 0.4 mph 92% 0 in 0.00 W/m2
03:29 76.7 °F 74.2 °F 29.92 in WSW 3.5 mph 1.1 mph 92% 0 in 0.00 W/m2
03:34 76.7 °F 74.2 °F 29.92 in WSW 2 mph 0.4 mph 92% 0 in 0.00 W/m2
03:39 76.8 °F 74.3 °F 29.92 in WSW 2.3 mph 0.4 mph 92% 0 in 0.00 W/m2
03:44 76.9 °F 74.4 °F 29.92 in WSW 1.2 mph   92% 0 in 0.00 W/m2
03:49 76.9 °F 74.4 °F 29.92 in Calm     92% 0 in 0.00 W/m2
03:54 76.8 °F 74.3 °F 29.91 in Calm     92% 0 in 0.00 W/m2
03:59 76.7 °F 74.2 °F 29.92 in Calm     92% 0 in 0.00 W/m2
04:04 76.7 °F 74.2 °F 29.92 in WSW 2.3 mph 0.4 mph 92% 0 in 0.00 W/m2
04:09 76.7 °F 74.5 °F 29.92 in Calm     93% 0 in 0.00 W/m2
04:14 76.6 °F 74.4 °F 29.92 in Calm     93% 0 in 0.00 W/m2
04:19 76.6 °F 74.4 °F 29.92 in Calm     93% 0 in 0.00 W/m2
04:24 76.5 °F 74.3 °F 29.92 in Calm     93% 0 in 0.00 W/m2
04:29 76.5 °F 74.3 °F 29.92 in Calm     93% 0 in 0.00 W/m2
04:34 76.4 °F 74.2 °F 29.92 in Calm     93% 0 in 0.00 W/m2
04:39 76 °F 73.5 °F 29.92 in Calm     92% 0 in 0.00 W/m2
04:44 75.7 °F 73.5 °F 29.92 in Calm     93% 0 in 0.00 W/m2
04:49 75.4 °F 73.2 °F 29.92 in Calm     93% 0 in 0.00 W/m2
04:54 75.3 °F 73.1 °F 29.92 in Calm     93% 0 in 0.00 W/m2
04:59 75.5 °F 73.7 °F 29.93 in Calm   0.1 mph 94% 0 in 0.00 W/m2
05:04 75.7 °F 73.8 °F 29.93 in Calm     94% 0 in 0.00 W/m2
05:09 75.8 °F 73.9 °F 29.93 in Calm     94% 0 in 0.00 W/m2
05:14 75.8 °F 73.9 °F 29.93 in Calm     94% 0 in 0.00 W/m2
05:19 75.8 °F 73.9 °F 29.93 in WSW 2.3 mph 1 mph 94% 0 in 0.00 W/m2
05:24 75.8 °F 73.9 °F 29.93 in West 2.3 mph 0.6 mph 94% 0 in 0.00 W/m2
05:29 75.8 °F 73.9 °F 29.93 in West 2.3 mph 0.1 mph 94% 0 in 0.00 W/m2
05:34 75.7 °F 73.8 °F 29.93 in Calm     94% 0 in 0.00 W/m2
05:39 75.7 °F 73.8 °F 29.94 in West 1.2 mph   94% 0 in 5.00 W/m2
05:44 75.7 °F 74.2 °F 29.94 in West 3.5 mph 0.4 mph 95% 0 in 11.00 W/m2
05:49 75.7 °F 74.2 °F 29.94 in West 2.3 mph 0.3 mph 95% 0 in 16.00 W/m2
05:54 75.7 °F 74.2 °F 29.93 in West 2.3 mph   95% 0 in 18.00 W/m2
05:59 75.8 °F 74.3 °F 29.94 in West 1.2 mph   95% 0 in 23.00 W/m2
06:04 75.8 °F 74.3 °F 29.94 in WNW 2.3 mph 0.5 mph 95% 0 in 28.00 W/m2
06:09 75.9 °F 74.4 °F 29.94 in NW 3.5 mph 0.9 mph 95% 0 in 33.00 W/m2
06:14 76 °F 74.5 °F 29.94 in Calm   0.9 mph 95% 0 in 35.00 W/m2
06:19 76 °F 74.1 °F 29.94 in NW 3 mph 1 mph 94% 0 in 49.00 W/m2
06:24 76.1 °F 74.2 °F 29.94 in WNW 3.5 mph 0.9 mph 94% 0 in 65.00 W/m2
06:29 76.3 °F 74.4 °F 29.94 in NW 3.5 mph 1.6 mph 94% 0 in 74.00 W/m2
06:34 76.5 °F 75 °F 29.94 in NW 3.5 mph 1.8 mph 95% 0 in 83.00 W/m2
06:39 76.7 °F 74.8 °F 29.94 in NNW 3.5 mph 2.6 mph 94% 0 in 72.00 W/m2
06:44 76.9 °F 75 °F 29.95 in NNW 3.5 mph 1.5 mph 94% 0 in 65.00 W/m2
06:49 77 °F 75.1 °F 29.94 in NNW 3.5 mph 1.9 mph 94% 0 in 58.00 W/m2
06:54 77 °F 75.1 °F 29.94 in NNW 1.2 mph   94% 0 in 91.00 W/m2
06:59 77 °F 75.1 °F 29.94 in Calm     94% 0 in 132.00 W/m2
07:04 77.2 °F 75.3 °F 29.94 in Calm     94% 0 in 139.00 W/m2
07:09 77.5 °F 75.3 °F 29.94 in Calm     93% 0 in 153.00 W/m2
07:14 77.8 °F 75.6 °F 29.94 in Calm     93% 0 in 218.00 W/m2
07:19 78.2 °F 76 °F 29.95 in Calm     93% 0 in 232.00 W/m2
07:24 78.7 °F 76.2 °F 29.95 in Calm     92% 0 in 227.00 W/m2
07:29 78.9 °F 75.7 °F 29.95 in NNW 3.5 mph 1.5 mph 90% 0 in 262.00 W/m2
07:34 79.1 °F 75.9 °F 29.95 in NW 4.6 mph 0.3 mph 90% 0 in 308.00 W/m2
07:39 79.3 °F 76.1 °F 29.95 in Calm     90% 0 in 311.00 W/m2
07:44 79.5 °F 76.3 °F 29.95 in NNW 1 mph 1.8 mph 90% 0 in 311.00 W/m2
07:49 79.7 °F 76.2 °F 29.95 in Calm     89% 0 in 332.00 W/m2
07:54 80.1 °F 76.9 °F 29.95 in Calm     90% 0 in 311.00 W/m2
07:59 80.2 °F 76.7 °F 29.95 in NNW 3.5 mph   89% 0 in 341.00 W/m2
08:04 80.3 °F 76.8 °F 29.95 in Calm     89% 0 in 360.00 W/m2
08:09 80.7 °F 77.2 °F 29.95 in Calm     89% 0 in 316.00 W/m2
08:14 81.1 °F 77.2 °F 29.95 in Calm     88% 0 in 362.00 W/m2
08:19 81.3 °F 77.4 °F 29.95 in Calm     88% 0 in 425.00 W/m2
08:24 81.6 °F 77 °F 29.95 in Calm     86% 0 in 429.00 W/m2
08:29 81.7 °F 76.4 °F 29.95 in NNW 3.5 mph 0.1 mph 84% 0 in 425.00 W/m2
08:34 81.9 °F 77.3 °F 29.95 in Calm     86% 0 in 441.00 W/m2
08:39 82.3 °F 77 °F 29.95 in Calm     84% 0 in 392.00 W/m2
08:44 82.9 °F 78.3 °F 29.95 in Calm     86% 0 in 476.00 W/m2
08:49 83.3 °F 77.6 °F 29.95 in Calm     83% 0 in 461.00 W/m2
08:54 83.9 °F 78.5 °F 29.95 in Calm     84% 0 in 348.00 W/m2
08:59 84.3 °F 78.6 °F 29.95 in NNE 3.5 mph 0.4 mph 83% 0 in 366.00 W/m2
09:04 83.9 °F 77.8 °F 29.95 in NNE 3.5 mph 1.5 mph 82% 0 in 322.00 W/m2
09:09 83.5 °F 77.8 °F 29.95 in NNE 2.3 mph 0.8 mph 83% 0 in 323.00 W/m2
09:14 83.5 °F 78.2 °F 29.95 in Calm     84% 0 in 359.00 W/m2
09:19 83.8 °F 78.8 °F 29.95 in NE 1.2 mph   85% 0 in 396.00 W/m2
09:24 84.1 °F 78 °F 29.95 in Calm     82% 0 in 292.00 W/m2
09:29 84.1 °F 77.6 °F 29.95 in Calm     81% 0 in 353.00 W/m2
09:34 83.8 °F 77.3 °F 29.95 in NNE 3 mph 0.3 mph 81% 0 in 350.00 W/m2
09:39 83.6 °F 77.5 °F 29.95 in Calm     82% 0 in 362.00 W/m2
09:44 83.5 °F 77.8 °F 29.95 in NNE 3.5 mph 0.4 mph 83% 0 in 403.00 W/m2
09:49 83.4 °F 77 °F 29.95 in Calm     81% 0 in 425.00 W/m2
09:54 83.5 °F 77.8 °F 29.95 in NNE 3.5 mph 1.1 mph 83% 0 in 485.00 W/m2
09:59 83.9 °F 77.8 °F 29.95 in Calm   1.1 mph 82% 0 in 439.00 W/m2
10:04 84.1 °F 78.7 °F 29.95 in NE 1.2 mph   84% 0 in 455.00 W/m2
10:09 84.4 °F 78.3 °F 29.95 in Calm     82% 0 in 448.00 W/m2
10:14 84.8 °F 78.3 °F 29.95 in NNE 4 mph 0.1 mph 81% 0 in 533.00 W/m2
10:19 84.9 °F 78.4 °F 29.95 in Calm     81% 0 in 552.00 W/m2
10:24 85.2 °F 79.1 °F 29.95 in Calm     82% 0 in 592.00 W/m2
10:29 86 °F 79.9 °F 29.95 in Calm   0.1 mph 82% 0 in 686.00 W/m2
10:34 86.6 °F 80.1 °F 29.95 in Calm     81% 0 in 763.00 W/m2
10:39 86.8 °F 78.3 °F 29.95 in Calm     76% 0 in 796.00 W/m2
10:44 87 °F 78.9 °F 29.95 in Calm     77% 0 in 800.00 W/m2
10:49 87.1 °F 79.4 °F 29.95 in Calm     78% 0 in 803.00 W/m2
10:54 87.5 °F 78.6 °F 29.95 in ENE 2 mph 0.6 mph 75% 0 in 694.00 W/m2
10:59 87.8 °F 79.7 °F 29.95 in Calm     77% 0 in 733.00 W/m2
11:04 87.9 °F 78.2 °F 29.94 in Calm     73% 0 in 643.00 W/m2
11:09 87.9 °F 79 °F 29.95 in Calm     75% 0 in 543.00 W/m2
11:14 88 °F 79.5 °F 29.95 in East 1.2 mph   76% 0 in 700.00 W/m2
11:19 87.9 °F 79.4 °F 29.94 in Calm     76% 0 in 747.00 W/m2
11:24 88.2 °F 79.7 °F 29.95 in Calm     76% 0 in 789.00 W/m2
11:29 88.3 °F 77.7 °F 29.95 in Calm     71% 0 in 902.00 W/m2
11:34 88.3 °F 78.5 °F 29.95 in ESE 1.2 mph   73% 0 in 265.00 W/m2
11:39 88.3 °F 78.1 °F 29.94 in NW 1.2 mph 0.3 mph 72% 0 in 916.00 W/m2
11:44 88.2 °F 78.4 °F 29.94 in Calm     73% 0 in 949.00 W/m2
11:49 88.4 °F 79.5 °F 29.94 in Calm     75% 0 in 949.00 W/m2
11:54 88.8 °F 78.6 °F 29.93 in North 4 mph 1.4 mph 72% 0 in 343.00 W/m2
11:59 89 °F 78.8 °F 29.93 in North 4.6 mph 1.5 mph 72% 0 in 926.00 W/m2
12:04 88.7 °F 76.8 °F 29.93 in NW 2 mph 0.8 mph 68% 0 in 193.00 W/m2
12:09 88.1 °F 76.2 °F 29.93 in Calm     68% 0 in 216.00 W/m2
12:14 87.9 °F 77.7 °F 29.93 in Calm     72% 0 in 274.00 W/m2
12:19 87.8 °F 76.8 °F 29.93 in Calm     70% 0 in 902.00 W/m2
12:24 88.1 °F 77.5 °F 29.93 in Calm     71% 0 in 870.00 W/m2
12:29 88.8 °F 78.6 °F 29.93 in Calm     72% 0 in 942.00 W/m2
12:34 89.5 °F 78 °F 29.92 in Calm     69% 0 in 828.00 W/m2
12:39 89.7 °F 78.6 °F 29.92 in Calm     70% 0 in 436.00 W/m2
12:44 89.7 °F 78.6 °F 29.92 in Calm     70% 0 in 285.00 W/m2
12:49 89.2 °F 76.4 °F 29.92 in WSW 5 mph 2.9 mph 66% 0 in 195.00 W/m2
12:54 88.7 °F 77.7 °F 29.92 in West 3.5 mph 0.4 mph 70% 0 in 782.00 W/m2
12:59 88.8 °F 77.3 °F 29.92 in SSW 3.5 mph 0.9 mph 69% 0 in 1020.00 W/m2
13:04 89.2 °F 79 °F 29.91 in NNW 2.3 mph 1.9 mph 72% 0 in 967.00 W/m2
13:09 89.4 °F 77.4 °F 29.91 in NW 3.5 mph 1.9 mph 68% 0 in 991.00 W/m2
13:14 89.9 °F 78.4 °F 29.91 in WNW 5.8 mph 3.2 mph 69% 0 in 912.00 W/m2
13:19 90.1 °F 78.1 °F 29.91 in West 5.8 mph 4.7 mph 68% 0 in 1000.00 W/m2
13:24 90.3 °F 77.4 °F 29.90 in West 11.5 mph 4.6 mph 66% 0 in 997.00 W/m2
13:29 89.9 °F 76.6 °F 29.90 in NW 10.4 mph 5.9 mph 65% 0 in 339.00 W/m2
13:34 89.6 °F 76.7 °F 29.89 in WNW 8.1 mph 1.9 mph 66% 0 in 902.00 W/m2
13:39 89.8 °F 76.5 °F 29.89 in WNW 4.6 mph 3.1 mph 65% 0 in 274.00 W/m2
13:44 89.7 °F 76.4 °F 29.89 in West 5 mph 4.2 mph 65% 0 in 325.00 W/m2
13:49 89.8 °F 76.9 °F 29.89 in WNW 10.4 mph 4.6 mph 66% 0 in 1013.00 W/m2
13:54 89.9 °F 76.6 °F 29.89 in NW 10.4 mph 5.9 mph 65% 0 in 279.00 W/m2
13:59 89.5 °F 77.5 °F 29.90 in NNE 17.3 mph 8.4 mph 68% 0 in 292.00 W/m2
14:04 85.5 °F 76.3 °F 29.91 in North 12.7 mph 11.4 mph 74% 0 in 364.00 W/m2
14:09 82.5 °F 75.3 °F 29.91 in NNE 18.4 mph 11.9 mph 79% 0 in 290.00 W/m2
14:14 80.6 °F 74.2 °F 29.91 in North 16.1 mph 11.8 mph 81% 0 in 728.00 W/m2
14:19 80.3 °F 74.7 °F 29.92 in NE 12.7 mph 9.7 mph 83% 0 in 891.00 W/m2
14:24 81.1 °F 74.3 °F 29.91 in NNE 15 mph 8.3 mph 80% 0 in 1095.00 W/m2
14:29 81.8 °F 73.9 °F 29.91 in NE 16.1 mph 9.6 mph 77% 0 in 998.00 W/m2
14:34 82.4 °F 74.8 °F 29.92 in NE 11.5 mph 7.7 mph 78% 0 in 949.00 W/m2
14:39 82.5 °F 73.8 °F 29.92 in North 15 mph 9.5 mph 75% 0 in 921.00 W/m2
14:44 82 °F 74.5 °F 29.93 in NNE 15 mph 8.2 mph 78% 0 in 837.00 W/m2
14:49 82.5 °F 76.1 °F 29.92 in NNE 13.8 mph 6.4 mph 81% 0 in 870.00 W/m2
14:54 83 °F 76.6 °F 29.93 in ENE 11.5 mph 7.4 mph 81% 0 in 809.00 W/m2
14:59 82.7 °F 76.3 °F 29.93 in NNE 12.7 mph 9.8 mph 81% 0 in 807.00 W/m2
15:04 82.5 °F 76.1 °F 29.92 in NNE 17.3 mph 7.7 mph 81% 0 in 837.00 W/m2
15:09 82.7 °F 76.6 °F 29.92 in NE 11.5 mph 9.3 mph 82% 0 in 893.00 W/m2
15:14 82.9 °F 77.2 °F 29.92 in NE 9.2 mph 3.9 mph 83% 0 in 837.00 W/m2
15:19 83 °F 76.9 °F 29.92 in NNE 10.4 mph 5 mph 82% 0 in 826.00 W/m2
15:24 82.2 °F 75.4 °F 29.92 in NE 11.5 mph 6.3 mph 80% 0 in 775.00 W/m2
15:29 81.5 °F 75.5 °F 29.92 in NE 11.5 mph 8 mph 82% 0 in 770.00 W/m2
15:34 81.4 °F 75 °F 29.92 in ENE 11.5 mph 7.8 mph 81% 0 in 744.00 W/m2
15:39 81.2 °F 74.8 °F 29.92 in NE 11.5 mph 6 mph 81% 0 in 722.00 W/m2
15:44 80.8 °F 74 °F 29.93 in ENE 13.8 mph 9.5 mph 80% 0 in 701.00 W/m2
15:49 80.6 °F 74.2 °F 29.92 in NNE 12.7 mph 5.7 mph 81% 0 in 624.00 W/m2
15:54 80.9 °F 74.5 °F 29.93 in NE 9.2 mph 5.6 mph 81% 0 in 800.00 W/m2
15:59 80.7 °F 73.6 °F 29.93 in ENE 11.5 mph 5.7 mph 79% 0 in 390.00 W/m2
16:04 80.7 °F 74.3 °F 29.93 in NE 11.5 mph 5.4 mph 81% 0 in 613.00 W/m2
16:09 81 °F 73.9 °F 29.92 in ENE 15 mph 8.1 mph 79% 0 in 575.00 W/m2
16:14 80.8 °F 73.3 °F 29.93 in NE 12.7 mph 7.3 mph 78% 0 in 466.00 W/m2
16:19 80.8 °F 74 °F 29.93 in ENE 11.5 mph 5.4 mph 80% 0 in 547.00 W/m2
16:24 80.9 °F 73.4 °F 29.93 in ENE 10.4 mph 5.1 mph 78% 0 in 622.00 W/m2
16:29 81 °F 73.1 °F 29.93 in ENE 17.3 mph 7.7 mph 77% 0 in 596.00 W/m2
16:34 80.6 °F 71.9 °F 29.93 in NNE 13.8 mph 10 mph 75% 0 in 541.00 W/m2
16:39 79.2 °F 70.6 °F 29.92 in North 13.8 mph 9.3 mph 75% 0 in 450.00 W/m2
16:44 78 °F 69.4 °F 29.93 in NNE 15 mph 9.1 mph 75% 0 in 339.00 W/m2
16:49 77.6 °F 69.8 °F 29.92 in NNE 13.8 mph 9.7 mph 77% 0 in 519.00 W/m2
16:54 78 °F 70.6 °F 29.92 in NNE 9 mph 8 mph 78% 0 in 487.00 W/m2
16:59 78.2 °F 70.8 °F 29.92 in NE 11.5 mph 6.2 mph 78% 0 in 285.00 W/m2
17:04 77.9 °F 70.1 °F 29.93 in NNE 9.2 mph 8.2 mph 77% 0 in 325.00 W/m2
17:09 77.6 °F 69.8 °F 29.94 in North 11.5 mph 6.1 mph 77% 0 in 411.00 W/m2
17:14 77.3 °F 69.1 °F 29.94 in NNE 5.8 mph 3.3 mph 76% 0 in 84.00 W/m2
17:19 76.5 °F 67.6 °F 29.94 in NE 10.4 mph 5.2 mph 74% 0 in 76.00 W/m2
17:24 75.7 °F 67.2 °F 29.93 in NNE 8.1 mph 4.4 mph 75% 0 in 70.00 W/m2
17:29 75.1 °F 66.6 °F 29.93 in NNE 8.1 mph 6.1 mph 75% 0 in 72.00 W/m2
17:34 74.6 °F 66.5 °F 29.93 in NNE 10.4 mph 4.1 mph 76% 0 in 70.00 W/m2
17:39 74.2 °F 66.1 °F 29.93 in NE 6.9 mph 3.1 mph 76% 0 in 62.00 W/m2
17:44 73.9 °F 66.2 °F 29.93 in ENE 5 mph 3.4 mph 77% 0 in 54.00 W/m2
17:49 73.6 °F 65.6 °F 29.93 in NNE 9.2 mph 4.4 mph 76% 0 in 53.00 W/m2
17:54 73.4 °F 65.7 °F 29.93 in NE 7 mph 2.9 mph 77% 0 in 53.00 W/m2
17:59 73.1 °F 65.5 °F 29.93 in NNE 8.1 mph 3.7 mph 77% 0 in 62.00 W/m2
18:04 72.9 °F 65.3 °F 29.93 in NNE 5.8 mph 4.1 mph 77% 0 in 98.00 W/m2
18:09 72.9 °F 65.6 °F 29.93 in NNE 8.1 mph 6.6 mph 78% 0 in 199.00 W/m2
18:14 73.4 °F 65.7 °F 29.93 in ENE 10 mph 7.8 mph 77% 0 in 290.00 W/m2
18:19 73.9 °F 66.2 °F 29.93 in NE 8.1 mph 7.2 mph 77% 0 in 248.00 W/m2
18:24 74.1 °F 66.4 °F 29.93 in North 8.1 mph 2.4 mph 77% 0 in 295.00 W/m2
18:29 74.3 °F 66.6 °F 29.93 in NE 10.4 mph 3.5 mph 77% 0 in 352.00 W/m2
18:34 74.6 °F 66.1 °F 29.93 in NNE 9.2 mph 6.3 mph 75% 0 in 271.00 W/m2
18:39 74.4 °F 65.6 °F 29.93 in North 12.7 mph 6.9 mph 74% 0 in 341.00 W/m2
18:44 74.5 °F 66.1 °F 29.92 in NNE 12.7 mph 7.9 mph 75% 0 in 299.00 W/m2
18:49 74.6 °F 66.1 °F 29.93 in NNE 10.4 mph 5.3 mph 75% 0 in 276.00 W/m2
18:54 74.6 °F 65.8 °F 29.93 in NE 10.4 mph 7.2 mph 74% 0 in 239.00 W/m2
18:59 74.5 °F 66.1 °F 29.93 in NNE 9.2 mph 5 mph 75% 0 in 216.00 W/m2
19:04 74.2 °F 65.4 °F 29.93 in NNE 8 mph 7 mph 74% 0 in 153.00 W/m2
19:09 73.7 °F 64.5 °F 29.94 in NNE 12.7 mph 8.4 mph 73% 0 in 113.00 W/m2
19:14 73.1 °F 64.3 °F 29.94 in North 12.7 mph 7.1 mph 74% 0 in 91.00 W/m2
19:19 72.8 °F 64.4 °F 29.94 in NNE 11.5 mph 5 mph 75% 0 in 77.00 W/m2
19:24 72.5 °F 64.5 °F 29.94 in NNE 10.4 mph 4.4 mph 76% 0 in 77.00 W/m2
19:29 72.4 °F 64.4 °F 29.94 in NNE 8 mph 5 mph 76% 0 in 39.00 W/m2
19:34 72 °F 64 °F 29.95 in North 11.5 mph 5.9 mph 76% 0 in 39.00 W/m2
19:39 71.7 °F 63.7 °F 29.94 in NNE 13.8 mph 7.6 mph 76% 0 in 39.00 W/m2
19:44 71.5 °F 63.5 °F 29.94 in NNE 12.7 mph 7.6 mph 76% 0 in 37.00 W/m2
19:49 71.3 °F 63.3 °F 29.94 in North 15 mph 7.4 mph 76% 0 in 37.00 W/m2
19:54 71.2 °F 64 °F 29.94 in North 9.2 mph 5.8 mph 78% 0 in 35.00 W/m2
19:59 71.1 °F 64.3 °F 29.94 in NNE 8.1 mph 3.4 mph 79% 0 in 32.00 W/m2
20:04 70.9 °F 64.4 °F 29.95 in NNE 8.1 mph 5.3 mph 80% 0 in 26.00 W/m2
20:09 70.7 °F 64.2 °F 29.95 in North 9.2 mph 6.3 mph 80% 0 in 21.00 W/m2
20:14 70.4 °F 64.3 °F 29.95 in NE 6.9 mph 3.7 mph 81% 0 in 16.00 W/m2
20:19 70.2 °F 64.1 °F 29.95 in NNE 9.2 mph 5.5 mph 81% 0 in 11.00 W/m2
20:24 69.9 °F 64.2 °F 29.95 in NNE 15 mph 8.3 mph 82% 0 in 7.00 W/m2
20:29 69.6 °F 63.9 °F 29.95 in NNE 13.8 mph 11 mph 82% 0 in 5.00 W/m2
20:34 69.4 °F 63.7 °F 29.95 in NNE 9.2 mph 7.3 mph 82% 0 in 0.00 W/m2
20:39 69.1 °F 63.7 °F 29.95 in NE 11.5 mph 7.6 mph 83% 0 in 0.00 W/m2
20:44 68.8 °F 63.4 °F 29.95 in North 11.5 mph 7.5 mph 83% 0 in 0.00 W/m2
20:49 68.6 °F 63.6 °F 29.95 in North 10.4 mph 6.5 mph 84% 0 in 0.00 W/m2
20:54 68.3 °F 63.3 °F 29.96 in NNE 6.9 mph 5.1 mph 84% 0 in 0.00 W/m2
20:59 68.1 °F 63.4 °F 29.96 in North 10.4 mph 5.5 mph 85% 0 in 0.00 W/m2
21:04 68.1 °F 63.1 °F 29.96 in NNE 11.5 mph 4.6 mph 84% 0 in 0.00 W/m2
21:09 67.9 °F 63.2 °F 29.96 in NNE 10.4 mph 6.7 mph 85% 0 in 0.00 W/m2
21:14 67.8 °F 63.1 °F 29.97 in NE 9.2 mph 6.7 mph 85% 0 in 0.00 W/m2
21:19 67.7 °F 63 °F 29.97 in NNE 9.2 mph 5.6 mph 85% 0 in 0.00 W/m2
21:24 67.6 °F 62.9 °F 29.97 in NNE 6.9 mph 3.1 mph 85% 0 in 0.00 W/m2
21:29 67.5 °F 63.2 °F 29.97 in NNE 5.8 mph 3.6 mph 86% 0 in 0.00 W/m2
21:34 67.3 °F 63 °F 29.97 in NNE 4.6 mph 2.1 mph 86% 0 in 0.00 W/m2
21:39 67.2 °F 62.9 °F 29.98 in NNE 5.8 mph 2.8 mph 86% 0 in 0.00 W/m2
21:44 67.1 °F 63.1 °F 29.98 in NNE 5 mph 3.4 mph 87% 0 in 0.00 W/m2
21:49 67 °F 63 °F 29.98 in NNE 4 mph 2.5 mph 87% 0 in 0.00 W/m2
21:54 66.8 °F 62.8 °F 29.98 in NNE 3.5 mph 1.8 mph 87% 0 in 0.00 W/m2
21:59 66.7 °F 63 °F 29.98 in NNE 3.5 mph 2.4 mph 88% 0 in 0.00 W/m2
22:04 66.6 °F 62.9 °F 29.98 in NNE 2.3 mph 0.5 mph 88% 0 in 0.00 W/m2
22:09 66.5 °F 62.8 °F 29.99 in Calm     88% 0 in 0.00 W/m2
22:14 66.3 °F 63 °F 29.99 in Calm     89% 0 in 0.00 W/m2
22:19 66.2 °F 62.9 °F 29.99 in Calm     89% 0 in 0.00 W/m2
22:24 66 °F 62.7 °F 29.99 in Calm     89% 0 in 0.00 W/m2
22:29 65.9 °F 62.6 °F 30.00 in Calm     89% 0 in 0.00 W/m2
22:34 65.8 °F 62.8 °F 29.99 in Calm     90% 0 in 0.00 W/m2
22:39 65.7 °F 63 °F 29.99 in Calm     91% 0 in 0.00 W/m2
22:44 65.6 °F 62.9 °F 29.99 in NNE 1.2 mph 0.6 mph 91% 0 in 0.00 W/m2
22:49 65.5 °F 62.8 °F 29.99 in Calm     91% 0 in 0.00 W/m2
22:54 65.5 °F 62.8 °F 29.99 in North 3 mph 1.7 mph 91% 0 in 0.00 W/m2
22:59 65.9 °F 62.9 °F 29.99 in NNW 4 mph 3.1 mph 90% 0 in 0.00 W/m2
23:04 66.2 °F 63.2 °F 29.98 in North 3.5 mph 2.3 mph 90% 0 in 0.00 W/m2
23:09 66.4 °F 63.1 °F 29.98 in North 4 mph 2.7 mph 89% 0 in 0.00 W/m2
23:14 66.6 °F 63.3 °F 29.98 in North 4.6 mph 2.3 mph 89% 0 in 0.00 W/m2
23:19 66.8 °F 63.1 °F 29.98 in North 3.5 mph 3.4 mph 88% 0 in 0.00 W/m2
23:24 67 °F 63 °F 29.99 in NNW 3.5 mph 1.6 mph 87% 0 in 0.00 W/m2
23:29 67.2 °F 62.9 °F 29.98 in NNW 4.6 mph 3.9 mph 86% 0 in 0.00 W/m2
23:34 67.4 °F 63.1 °F 29.99 in NNW 3.5 mph 2.9 mph 86% 0 in 0.00 W/m2
23:39 67.6 °F 62.9 °F 29.99 in NNW 6.9 mph 4.6 mph 85% 0 in 0.00 W/m2
23:44 67.7 °F 62.7 °F 29.99 in North 6.9 mph 3.5 mph 84% 0 in 0.00 W/m2
23:49 67.7 °F 62.7 °F 29.99 in NNW 8 mph 5.2 mph 84% 0 in 0.00 W/m2
23:54 67.7 °F 62.7 °F 29.98 in North 6 mph 3.5 mph 84% 0 in 0.00 W/m2
23:59 67.8 °F 62.8 °F 29.98 in NNW 5 mph 4.4 mph 84% 0 in 0.00 W/m2
Bourbonnais, Illinois, USA
Compliments of Weather Underground - 4 mb